Desert Spring — V7XQ8 — position and weather

sailwx.info

Track history (hours):
 
Tides and Currents Weather Stations Pressure Air Temp Water Temp Dewpoint Dewpoint Depression Visibility Wind Speed Wind Dir Waves Ship Positions

Desert Spring

Last reported at 2017-Apr-25 19:05 UTC. Time now 2017-May-22 17:20 UTC.
Position N 09°55' W 016°42'.
Warning: this ship's position is 26 days out of date.

Length 193 m; draft 12 m.

Type: Cargo ship. MMSI: 538004547.

Date/timePositionNaut miles runAvg speedWind from/ knotsBaromVisibWave heightAir tempDewpointWater temp
2017-Apr-25 19:05N 09°55' W 016°42'113.2
2017-Apr-25 19:00N 09°55' W 016°43'713.2
2017-Apr-25 18:30N 10°01' W 016°47'713.2
2017-Apr-25 18:00N 10°06' W 016°51'2313.4
2017-Apr-25 16:18N 10°25' W 017°04'413.4
2017-Apr-25 16:00N 10°28' W 017°07'713.1
2017-Apr-25 15:27N 10°34' W 017°11'713.9
2017-Apr-25 14:58N 10°39' W 017°15'1313.5
2017-Apr-25 13:59N 10°50' W 017°23'4113.2
2017-Apr-25 10:51N 11°26' W 017°43'  
2017-Apr-20 07:17N 35°57' W 005°40'414.0
2017-Apr-20 07:00N 35°57' W 005°35'612.8
2017-Apr-20 06:30N 35°59' W 005°27'612.2
2017-Apr-20 06:00N 36°01' W 005°20'612.1
2017-Apr-20 05:30N 36°02' W 005°13'912.7
2017-Apr-20 04:48N 36°04' W 005°02'  
2017-Apr-17 23:49N 37°42' E 009°21'23512.1
2017-Apr-17 04:27N 36°34' E 014°02'512.3
2017-Apr-17 04:00N 36°32' E 014°09'1112.4
2017-Apr-17 03:07N 36°29' E 014°22'212.5
2017-Apr-17 02:59N 36°28' E 014°24'612.5
2017-Apr-17 02:30N 36°26' E 014°31'712.5
2017-Apr-17 01:59N 36°24' E 014°39'612.7
2017-Apr-17 01:29N 36°23' E 014°46'712.6
2017-Apr-17 00:58N 36°20' E 014°54'  
Track history (hours):
 
Tides and Currents Weather Stations Pressure Air Temp Water Temp Dewpoint Dewpoint Depression Visibility Wind Speed Wind Dir Waves Ship Positions

Desert Spring

Last reported at 2017-Apr-25 19:05 UTC. Time now 2017-May-22 17:20 UTC.
Position N 09°55' W 016°42'.
Warning: this ship's position is 26 days out of date.

Length 193 m; draft 12 m.

Type: Cargo ship. MMSI: 538004547.

Date/timePositionNaut miles runAvg speedWind from/ knotsBaromVisibWave heightAir tempDewpointWater temp
2017-Apr-25 19:05N 09°55' W 016°42'113.2
2017-Apr-25 19:00N 09°55' W 016°43'713.2
2017-Apr-25 18:30N 10°01' W 016°47'713.2
2017-Apr-25 18:00N 10°06' W 016°51'2313.4
2017-Apr-25 16:18N 10°25' W 017°04'413.4
2017-Apr-25 16:00N 10°28' W 017°07'713.1
2017-Apr-25 15:27N 10°34' W 017°11'713.9
2017-Apr-25 14:58N 10°39' W 017°15'1313.5
2017-Apr-25 13:59N 10°50' W 017°23'4113.2
2017-Apr-25 10:51N 11°26' W 017°43'  
2017-Apr-20 07:17N 35°57' W 005°40'414.0
2017-Apr-20 07:00N 35°57' W 005°35'612.8
2017-Apr-20 06:30N 35°59' W 005°27'612.2
2017-Apr-20 06:00N 36°01' W 005°20'612.1
2017-Apr-20 05:30N 36°02' W 005°13'912.7
2017-Apr-20 04:48N 36°04' W 005°02'  
2017-Apr-17 23:49N 37°42' E 009°21'23512.1
2017-Apr-17 04:27N 36°34' E 014°02'512.3
2017-Apr-17 04:00N 36°32' E 014°09'1112.4
2017-Apr-17 03:07N 36°29' E 014°22'212.5
2017-Apr-17 02:59N 36°28' E 014°24'612.5
2017-Apr-17 02:30N 36°26' E 014°31'712.5
2017-Apr-17 01:59N 36°24' E 014°39'612.7
2017-Apr-17 01:29N 36°23' E 014°46'712.6
2017-Apr-17 00:58N 36°20' E 014°54'  

Dump ship's entire track history